sensor_id;sensor_type;location;lat;lon;timestamp;P1;durP1;ratioP1;P2;durP2;ratioP2
6537;SDS011;3302;52.508;13.454;2023-02-28T00:00:29;6.93;;;2.63;;
6537;SDS011;3302;52.508;13.454;2023-02-28T00:02:55;5.23;;;2.93;;
6537;SDS011;3302;52.508;13.454;2023-02-28T00:05:22;5.87;;;3.17;;
6537;SDS011;3302;52.508;13.454;2023-02-28T00:07:48;5.73;;;3.07;;
6537;SDS011;3302;52.508;13.454;2023-02-28T00:10:16;5.03;;;2.80;;
6537;SDS011;3302;52.508;13.454;2023-02-28T00:12:51;5.60;;;2.83;;
6537;SDS011;3302;52.508;13.454;2023-02-28T00:15:19;3.97;;;2.73;;
6537;SDS011;3302;52.508;13.454;2023-02-28T00:17:45;4.77;;;2.63;;
6537;SDS011;3302;52.508;13.454;2023-02-28T00:20:11;6.40;;;2.90;;
6537;SDS011;3302;52.508;13.454;2023-02-28T00:22:39;4.40;;;2.73;;
6537;SDS011;3302;52.508;13.454;2023-02-28T00:25:14;5.77;;;2.83;;
6537;SDS011;3302;52.508;13.454;2023-02-28T00:27:41;4.53;;;2.20;;
6537;SDS011;3302;52.508;13.454;2023-02-28T00:30:09;6.37;;;3.17;;
6537;SDS011;3302;52.508;13.454;2023-02-28T00:32:38;3.87;;;2.60;;
6537;SDS011;3302;52.508;13.454;2023-02-28T00:35:04;4.60;;;2.83;;
6537;SDS011;3302;52.508;13.454;2023-02-28T00:37:30;5.60;;;3.10;;
6537;SDS011;3302;52.508;13.454;2023-02-28T00:39:56;4.13;;;2.70;;
6537;SDS011;3302;52.508;13.454;2023-02-28T00:42:22;4.63;;;2.57;;
6537;SDS011;3302;52.508;13.454;2023-02-28T00:44:48;5.07;;;2.70;;
6537;SDS011;3302;52.508;13.454;2023-02-28T00:47:14;4.27;;;2.87;;
6537;SDS011;3302;52.508;13.454;2023-02-28T00:49:40;5.47;;;3.43;;
6537;SDS011;3302;52.508;13.454;2023-02-28T00:52:06;5.30;;;2.97;;
6537;SDS011;3302;52.508;13.454;2023-02-28T00:54:31;5.77;;;2.70;;
6537;SDS011;3302;52.508;13.454;2023-02-28T00:56:57;5.87;;;2.60;;
6537;SDS011;3302;52.508;13.454;2023-02-28T00:59:24;5.43;;;2.70;;
6537;SDS011;3302;52.508;13.454;2023-02-28T01:01:50;4.07;;;2.83;;
6537;SDS011;3302;52.508;13.454;2023-02-28T01:04:16;5.33;;;3.00;;
6537;SDS011;3302;52.508;13.454;2023-02-28T01:06:41;5.80;;;2.77;;
6537;SDS011;3302;52.508;13.454;2023-02-28T01:09:07;4.93;;;2.80;;
6537;SDS011;3302;52.508;13.454;2023-02-28T01:11:34;4.23;;;2.90;;
6537;SDS011;3302;52.508;13.454;2023-02-28T01:14:00;7.57;;;3.20;;
6537;SDS011;3302;52.508;13.454;2023-02-28T01:16:26;4.03;;;3.03;;
6537;SDS011;3302;52.508;13.454;2023-02-28T01:18:53;4.93;;;3.27;;
6537;SDS011;3302;52.508;13.454;2023-02-28T01:21:20;5.77;;;3.07;;
6537;SDS011;3302;52.508;13.454;2023-02-28T01:23:46;5.60;;;3.07;;
6537;SDS011;3302;52.508;13.454;2023-02-28T01:26:17;4.30;;;3.10;;
6537;SDS011;3302;52.508;13.454;2023-02-28T01:28:47;5.50;;;3.20;;
6537;SDS011;3302;52.508;13.454;2023-02-28T01:31:14;4.87;;;2.70;;
6537;SDS011;3302;52.508;13.454;2023-02-28T01:33:43;6.53;;;3.20;;
6537;SDS011;3302;52.508;13.454;2023-02-28T01:36:11;5.57;;;3.17;;
6537;SDS011;3302;52.508;13.454;2023-02-28T01:38:39;6.07;;;3.33;;
6537;SDS011;3302;52.508;13.454;2023-02-28T01:41:05;5.97;;;3.10;;
6537;SDS011;3302;52.508;13.454;2023-02-28T01:46:10;4.93;;;3.33;;
6537;SDS011;3302;52.508;13.454;2023-02-28T01:48:38;4.93;;;3.00;;
6537;SDS011;3302;52.508;13.454;2023-02-28T01:51:11;5.47;;;3.30;;
6537;SDS011;3302;52.508;13.454;2023-02-28T01:53:42;5.67;;;3.40;;
6537;SDS011;3302;52.508;13.454;2023-02-28T01:56:13;4.57;;;3.53;;
6537;SDS011;3302;52.508;13.454;2023-02-28T01:58:48;5.47;;;3.00;;
6537;SDS011;3302;52.508;13.454;2023-02-28T02:01:15;6.30;;;3.23;;
6537;SDS011;3302;52.508;13.454;2023-02-28T02:03:49;6.27;;;3.27;;
6537;SDS011;3302;52.508;13.454;2023-02-28T02:06:25;5.40;;;2.90;;
6537;SDS011;3302;52.508;13.454;2023-02-28T02:08:54;6.07;;;3.30;;
6537;SDS011;3302;52.508;13.454;2023-02-28T02:11:20;4.47;;;3.17;;
6537;SDS011;3302;52.508;13.454;2023-02-28T02:38:09;6.13;;;3.60;;
6537;SDS011;3302;52.508;13.454;2023-02-28T02:40:41;6.00;;;3.30;;
6537;SDS011;3302;52.508;13.454;2023-02-28T02:45:48;7.73;;;3.87;;
6537;SDS011;3302;52.508;13.454;2023-02-28T02:48:18;5.90;;;3.37;;
6537;SDS011;3302;52.508;13.454;2023-02-28T02:50:48;6.37;;;3.70;;
6537;SDS011;3302;52.508;13.454;2023-02-28T02:53:21;6.23;;;3.50;;
6537;SDS011;3302;52.508;13.454;2023-02-28T02:55:52;6.50;;;3.63;;
6537;SDS011;3302;52.508;13.454;2023-02-28T02:58:21;4.73;;;3.23;;
6537;SDS011;3302;52.508;13.454;2023-02-28T03:00:55;6.23;;;3.40;;
6537;SDS011;3302;52.508;13.454;2023-02-28T03:03:24;6.43;;;3.83;;
6537;SDS011;3302;52.508;13.454;2023-02-28T03:05:55;5.93;;;3.70;;
6537;SDS011;3302;52.508;13.454;2023-02-28T03:08:23;6.27;;;3.63;;
6537;SDS011;3302;52.508;13.454;2023-02-28T03:10:50;6.73;;;3.83;;
6537;SDS011;3302;52.508;13.454;2023-02-28T03:16:22;6.03;;;3.90;;
6537;SDS011;3302;52.508;13.454;2023-02-28T03:24:54;6.83;;;3.87;;
6537;SDS011;3302;52.508;13.454;2023-02-28T03:27:54;5.10;;;3.83;;
6537;SDS011;3302;52.508;13.454;2023-02-28T03:30:25;6.17;;;3.93;;
6537;SDS011;3302;52.508;13.454;2023-02-28T03:33:08;5.93;;;3.67;;
6537;SDS011;3302;52.508;13.454;2023-02-28T03:36:17;6.77;;;4.03;;
6537;SDS011;3302;52.508;13.454;2023-02-28T03:38:47;4.50;;;3.40;;
6537;SDS011;3302;52.508;13.454;2023-02-28T03:41:27;5.77;;;3.73;;
6537;SDS011;3302;52.508;13.454;2023-02-28T03:47:24;6.67;;;3.50;;
6537;SDS011;3302;52.508;13.454;2023-02-28T03:50:01;5.63;;;3.73;;
6537;SDS011;3302;52.508;13.454;2023-02-28T03:52:31;6.93;;;3.60;;
6537;SDS011;3302;52.508;13.454;2023-02-28T03:55:02;6.00;;;4.10;;
6537;SDS011;3302;52.508;13.454;2023-02-28T04:00:20;6.00;;;3.63;;
6537;SDS011;3302;52.508;13.454;2023-02-28T04:02:53;6.57;;;4.10;;
6537;SDS011;3302;52.508;13.454;2023-02-28T04:05:20;6.27;;;3.60;;
6537;SDS011;3302;52.508;13.454;2023-02-28T04:07:46;5.60;;;3.50;;
6537;SDS011;3302;52.508;13.454;2023-02-28T04:10:13;7.60;;;4.63;;
6537;SDS011;3302;52.508;13.454;2023-02-28T04:12:40;5.90;;;3.70;;
6537;SDS011;3302;52.508;13.454;2023-02-28T04:15:06;8.50;;;3.80;;
6537;SDS011;3302;52.508;13.454;2023-02-28T04:17:33;5.70;;;3.70;;
6537;SDS011;3302;52.508;13.454;2023-02-28T04:19:58;6.33;;;3.40;;
6537;SDS011;3302;52.508;13.454;2023-02-28T04:22:24;6.00;;;3.77;;
6537;SDS011;3302;52.508;13.454;2023-02-28T04:24:51;6.43;;;3.60;;
6537;SDS011;3302;52.508;13.454;2023-02-28T04:27:18;7.30;;;3.30;;
6537;SDS011;3302;52.508;13.454;2023-02-28T04:29:45;8.30;;;3.53;;
6537;SDS011;3302;52.508;13.454;2023-02-28T04:32:10;5.73;;;3.57;;
6537;SDS011;3302;52.508;13.454;2023-02-28T04:34:37;6.57;;;3.73;;
6537;SDS011;3302;52.508;13.454;2023-02-28T04:37:03;5.27;;;3.53;;
6537;SDS011;3302;52.508;13.454;2023-02-28T04:39:29;5.87;;;3.70;;
6537;SDS011;3302;52.508;13.454;2023-02-28T04:41:55;5.87;;;3.80;;
6537;SDS011;3302;52.508;13.454;2023-02-28T04:44:21;5.97;;;3.67;;
6537;SDS011;3302;52.508;13.454;2023-02-28T04:46:48;6.87;;;3.80;;
6537;SDS011;3302;52.508;13.454;2023-02-28T04:49:14;7.70;;;3.93;;
6537;SDS011;3302;52.508;13.454;2023-02-28T04:51:40;7.20;;;4.30;;
6537;SDS011;3302;52.508;13.454;2023-02-28T04:54:07;5.27;;;3.50;;
6537;SDS011;3302;52.508;13.454;2023-02-28T04:56:33;6.70;;;4.30;;
6537;SDS011;3302;52.508;13.454;2023-02-28T04:58:59;8.40;;;3.97;;
6537;SDS011;3302;52.508;13.454;2023-02-28T05:01:26;6.47;;;3.60;;
6537;SDS011;3302;52.508;13.454;2023-02-28T05:03:55;5.87;;;3.80;;
6537;SDS011;3302;52.508;13.454;2023-02-28T05:06:22;6.60;;;3.73;;
6537;SDS011;3302;52.508;13.454;2023-02-28T05:08:49;5.93;;;4.03;;
6537;SDS011;3302;52.508;13.454;2023-02-28T05:11:17;6.77;;;4.10;;
6537;SDS011;3302;52.508;13.454;2023-02-28T05:13:43;7.33;;;3.93;;
6537;SDS011;3302;52.508;13.454;2023-02-28T05:16:09;6.00;;;4.20;;
6537;SDS011;3302;52.508;13.454;2023-02-28T05:18:35;7.13;;;4.10;;
6537;SDS011;3302;52.508;13.454;2023-02-28T05:21:01;7.40;;;3.93;;
6537;SDS011;3302;52.508;13.454;2023-02-28T05:23:27;7.63;;;4.17;;
6537;SDS011;3302;52.508;13.454;2023-02-28T05:25:53;6.10;;;3.97;;
6537;SDS011;3302;52.508;13.454;2023-02-28T05:28:19;5.63;;;3.90;;
6537;SDS011;3302;52.508;13.454;2023-02-28T05:30:45;9.30;;;4.23;;
6537;SDS011;3302;52.508;13.454;2023-02-28T05:33:12;9.13;;;4.27;;
6537;SDS011;3302;52.508;13.454;2023-02-28T05:35:38;8.73;;;5.07;;
6537;SDS011;3302;52.508;13.454;2023-02-28T05:38:05;6.87;;;4.17;;
6537;SDS011;3302;52.508;13.454;2023-02-28T05:40:31;6.73;;;4.17;;
6537;SDS011;3302;52.508;13.454;2023-02-28T05:42:57;7.30;;;3.90;;
6537;SDS011;3302;52.508;13.454;2023-02-28T05:45:22;7.17;;;5.00;;
6537;SDS011;3302;52.508;13.454;2023-02-28T05:47:48;9.97;;;4.20;;
6537;SDS011;3302;52.508;13.454;2023-02-28T05:50:14;7.20;;;4.40;;
6537;SDS011;3302;52.508;13.454;2023-02-28T05:52:40;10.67;;;4.13;;
6537;SDS011;3302;52.508;13.454;2023-02-28T05:55:06;7.53;;;4.53;;
6537;SDS011;3302;52.508;13.454;2023-02-28T05:57:32;7.50;;;4.20;;
6537;SDS011;3302;52.508;13.454;2023-02-28T05:59:58;7.63;;;3.87;;
6537;SDS011;3302;52.508;13.454;2023-02-28T06:02:23;6.07;;;4.20;;
6537;SDS011;3302;52.508;13.454;2023-02-28T06:04:49;7.77;;;4.37;;
6537;SDS011;3302;52.508;13.454;2023-02-28T06:07:15;10.73;;;4.63;;
6537;SDS011;3302;52.508;13.454;2023-02-28T06:09:42;9.47;;;5.53;;
6537;SDS011;3302;52.508;13.454;2023-02-28T06:12:09;7.67;;;4.83;;
6537;SDS011;3302;52.508;13.454;2023-02-28T06:14:35;9.23;;;5.10;;
6537;SDS011;3302;52.508;13.454;2023-02-28T06:17:01;10.60;;;5.60;;
6537;SDS011;3302;52.508;13.454;2023-02-28T06:19:28;13.17;;;5.40;;
6537;SDS011;3302;52.508;13.454;2023-02-28T06:21:55;12.07;;;5.70;;
6537;SDS011;3302;52.508;13.454;2023-02-28T06:24:22;10.17;;;5.23;;
6537;SDS011;3302;52.508;13.454;2023-02-28T06:26:49;6.73;;;4.60;;
6537;SDS011;3302;52.508;13.454;2023-02-28T06:29:16;11.10;;;5.60;;
6537;SDS011;3302;52.508;13.454;2023-02-28T06:31:46;14.20;;;7.90;;
6537;SDS011;3302;52.508;13.454;2023-02-28T06:34:12;11.70;;;6.43;;
6537;SDS011;3302;52.508;13.454;2023-02-28T06:36:40;11.33;;;6.43;;
6537;SDS011;3302;52.508;13.454;2023-02-28T06:39:06;9.23;;;5.03;;
6537;SDS011;3302;52.508;13.454;2023-02-28T06:41:33;11.23;;;5.53;;
6537;SDS011;3302;52.508;13.454;2023-02-28T06:44:21;13.33;;;6.53;;
6537;SDS011;3302;52.508;13.454;2023-02-28T06:46:47;8.37;;;5.03;;
6537;SDS011;3302;52.508;13.454;2023-02-28T06:49:14;10.33;;;5.67;;
6537;SDS011;3302;52.508;13.454;2023-02-28T06:51:41;13.13;;;6.17;;
6537;SDS011;3302;52.508;13.454;2023-02-28T06:54:11;10.57;;;5.20;;
6537;SDS011;3302;52.508;13.454;2023-02-28T06:56:38;10.63;;;5.70;;
6537;SDS011;3302;52.508;13.454;2023-02-28T06:59:04;9.77;;;5.33;;
6537;SDS011;3302;52.508;13.454;2023-02-28T07:01:31;12.23;;;5.37;;
6537;SDS011;3302;52.508;13.454;2023-02-28T07:03:58;12.87;;;6.13;;
6537;SDS011;3302;52.508;13.454;2023-02-28T07:06:25;8.87;;;4.83;;
6537;SDS011;3302;52.508;13.454;2023-02-28T07:08:51;8.73;;;5.20;;
6537;SDS011;3302;52.508;13.454;2023-02-28T07:11:18;9.27;;;5.47;;
6537;SDS011;3302;52.508;13.454;2023-02-28T07:13:46;12.07;;;6.03;;
6537;SDS011;3302;52.508;13.454;2023-02-28T07:16:13;13.60;;;6.47;;
6537;SDS011;3302;52.508;13.454;2023-02-28T07:18:39;10.93;;;6.37;;
6537;SDS011;3302;52.508;13.454;2023-02-28T07:21:06;11.03;;;5.70;;
6537;SDS011;3302;52.508;13.454;2023-02-28T07:23:34;17.83;;;6.40;;
6537;SDS011;3302;52.508;13.454;2023-02-28T07:26:03;9.53;;;5.43;;
6537;SDS011;3302;52.508;13.454;2023-02-28T07:28:29;15.10;;;5.77;;
6537;SDS011;3302;52.508;13.454;2023-02-28T07:30:55;12.90;;;5.63;;
6537;SDS011;3302;52.508;13.454;2023-02-28T07:33:21;8.83;;;4.80;;
6537;SDS011;3302;52.508;13.454;2023-02-28T07:35:49;11.23;;;5.67;;
6537;SDS011;3302;52.508;13.454;2023-02-28T07:38:15;12.03;;;5.90;;
6537;SDS011;3302;52.508;13.454;2023-02-28T07:40:40;12.03;;;5.40;;
6537;SDS011;3302;52.508;13.454;2023-02-28T07:43:06;12.57;;;6.27;;
6537;SDS011;3302;52.508;13.454;2023-02-28T07:45:32;9.53;;;5.57;;
6537;SDS011;3302;52.508;13.454;2023-02-28T07:47:59;9.70;;;5.03;;
6537;SDS011;3302;52.508;13.454;2023-02-28T07:50:26;11.37;;;5.57;;
6537;SDS011;3302;52.508;13.454;2023-02-28T07:52:56;7.23;;;4.50;;
6537;SDS011;3302;52.508;13.454;2023-02-28T07:55:23;9.80;;;5.27;;
6537;SDS011;3302;52.508;13.454;2023-02-28T07:57:48;8.83;;;4.00;;
6537;SDS011;3302;52.508;13.454;2023-02-28T08:00:14;10.00;;;4.63;;
6537;SDS011;3302;52.508;13.454;2023-02-28T08:02:40;12.27;;;5.17;;
6537;SDS011;3302;52.508;13.454;2023-02-28T08:05:06;10.33;;;5.50;;
6537;SDS011;3302;52.508;13.454;2023-02-28T08:07:32;7.80;;;3.93;;
6537;SDS011;3302;52.508;13.454;2023-02-28T08:09:58;13.70;;;6.97;;
6537;SDS011;3302;52.508;13.454;2023-02-28T08:12:24;12.33;;;6.50;;
6537;SDS011;3302;52.508;13.454;2023-02-28T08:14:50;8.10;;;4.00;;
6537;SDS011;3302;52.508;13.454;2023-02-28T08:17:16;18.80;;;9.57;;
6537;SDS011;3302;52.508;13.454;2023-02-28T08:19:42;5.17;;;3.00;;
6537;SDS011;3302;52.508;13.454;2023-02-28T08:22:11;9.20;;;4.43;;
6537;SDS011;3302;52.508;13.454;2023-02-28T08:24:37;13.83;;;6.90;;
6537;SDS011;3302;52.508;13.454;2023-02-28T08:27:03;5.70;;;2.87;;
6537;SDS011;3302;52.508;13.454;2023-02-28T08:29:28;5.70;;;2.30;;
6537;SDS011;3302;52.508;13.454;2023-02-28T08:31:55;7.57;;;2.97;;
6537;SDS011;3302;52.508;13.454;2023-02-28T08:34:21;4.40;;;2.90;;
6537;SDS011;3302;52.508;13.454;2023-02-28T08:36:48;4.27;;;2.97;;
6537;SDS011;3302;52.508;13.454;2023-02-28T08:39:13;4.33;;;2.80;;
6537;SDS011;3302;52.508;13.454;2023-02-28T08:41:39;7.27;;;2.93;;
6537;SDS011;3302;52.508;13.454;2023-02-28T08:44:07;5.60;;;2.70;;
6537;SDS011;3302;52.508;13.454;2023-02-28T08:46:32;3.17;;;2.13;;
6537;SDS011;3302;52.508;13.454;2023-02-28T08:48:58;4.47;;;2.30;;
6537;SDS011;3302;52.508;13.454;2023-02-28T08:51:26;4.37;;;2.40;;
6537;SDS011;3302;52.508;13.454;2023-02-28T08:53:53;4.13;;;2.30;;
6537;SDS011;3302;52.508;13.454;2023-02-28T08:56:27;3.80;;;2.33;;
6537;SDS011;3302;52.508;13.454;2023-02-28T08:58:54;3.97;;;1.90;;
6537;SDS011;3302;52.508;13.454;2023-02-28T09:01:22;2.60;;;1.60;;
6537;SDS011;3302;52.508;13.454;2023-02-28T09:03:49;3.00;;;1.93;;
6537;SDS011;3302;52.508;13.454;2023-02-28T09:06:18;4.23;;;2.13;;
6537;SDS011;3302;52.508;13.454;2023-02-28T09:08:45;5.43;;;3.10;;
6537;SDS011;3302;52.508;13.454;2023-02-28T09:11:11;4.23;;;1.90;;
6537;SDS011;3302;52.508;13.454;2023-02-28T09:13:38;3.00;;;1.97;;
6537;SDS011;3302;52.508;13.454;2023-02-28T09:16:05;3.40;;;1.90;;
6537;SDS011;3302;52.508;13.454;2023-02-28T09:18:35;2.77;;;2.00;;
6537;SDS011;3302;52.508;13.454;2023-02-28T09:21:03;3.77;;;2.00;;
6537;SDS011;3302;52.508;13.454;2023-02-28T09:23:29;2.83;;;1.60;;
6537;SDS011;3302;52.508;13.454;2023-02-28T09:25:55;5.13;;;1.87;;
6537;SDS011;3302;52.508;13.454;2023-02-28T09:28:21;3.07;;;1.60;;
6537;SDS011;3302;52.508;13.454;2023-02-28T09:30:49;2.67;;;1.80;;
6537;SDS011;3302;52.508;13.454;2023-02-28T09:33:16;3.63;;;1.90;;
6537;SDS011;3302;52.508;13.454;2023-02-28T09:35:45;3.23;;;2.23;;
6537;SDS011;3302;52.508;13.454;2023-02-28T09:38:12;4.63;;;1.70;;
6537;SDS011;3302;52.508;13.454;2023-02-28T09:40:49;2.63;;;1.70;;
6537;SDS011;3302;52.508;13.454;2023-02-28T09:43:17;2.30;;;1.67;;
6537;SDS011;3302;52.508;13.454;2023-02-28T09:45:52;3.87;;;1.87;;
6537;SDS011;3302;52.508;13.454;2023-02-28T09:48:41;2.40;;;1.73;;
6537;SDS011;3302;52.508;13.454;2023-02-28T09:51:16;3.57;;;2.20;;
6537;SDS011;3302;52.508;13.454;2023-02-28T09:53:53;4.43;;;2.20;;
6537;SDS011;3302;52.508;13.454;2023-02-28T09:56:20;2.53;;;1.80;;
6537;SDS011;3302;52.508;13.454;2023-02-28T09:58:52;6.10;;;3.60;;
6537;SDS011;3302;52.508;13.454;2023-02-28T10:06:57;5.13;;;3.03;;
6537;SDS011;3302;52.508;13.454;2023-02-28T10:09:24;3.63;;;2.10;;
6537;SDS011;3302;52.508;13.454;2023-02-28T10:11:54;2.93;;;2.10;;
6537;SDS011;3302;52.508;13.454;2023-02-28T10:14:26;2.97;;;1.63;;
6537;SDS011;3302;52.508;13.454;2023-02-28T10:19:44;2.23;;;1.70;;
6537;SDS011;3302;52.508;13.454;2023-02-28T10:22:24;4.80;;;1.80;;
6537;SDS011;3302;52.508;13.454;2023-02-28T10:24:54;2.70;;;2.20;;
6537;SDS011;3302;52.508;13.454;2023-02-28T10:27:31;3.87;;;2.13;;
6537;SDS011;3302;52.508;13.454;2023-02-28T10:29:59;4.23;;;2.00;;
6537;SDS011;3302;52.508;13.454;2023-02-28T10:32:30;3.50;;;2.00;;
6537;SDS011;3302;52.508;13.454;2023-02-28T10:34:59;2.73;;;1.70;;
6537;SDS011;3302;52.508;13.454;2023-02-28T10:37:46;2.83;;;1.80;;
6537;SDS011;3302;52.508;13.454;2023-02-28T10:42:59;3.07;;;1.80;;
6537;SDS011;3302;52.508;13.454;2023-02-28T10:45:29;2.87;;;1.90;;
6537;SDS011;3302;52.508;13.454;2023-02-28T10:48:24;2.67;;;1.80;;
6537;SDS011;3302;52.508;13.454;2023-02-28T10:50:54;3.40;;;1.80;;
6537;SDS011;3302;52.508;13.454;2023-02-28T10:55:58;2.87;;;2.00;;
6537;SDS011;3302;52.508;13.454;2023-02-28T10:58:25;2.87;;;2.23;;
6537;SDS011;3302;52.508;13.454;2023-02-28T11:01:14;4.03;;;2.27;;
6537;SDS011;3302;52.508;13.454;2023-02-28T11:03:42;4.80;;;2.10;;
6537;SDS011;3302;52.508;13.454;2023-02-28T11:06:12;3.77;;;2.37;;
6537;SDS011;3302;52.508;13.454;2023-02-28T11:08:48;7.03;;;2.10;;
6537;SDS011;3302;52.508;13.454;2023-02-28T11:11:17;4.13;;;2.33;;
6537;SDS011;3302;52.508;13.454;2023-02-28T11:13:44;4.03;;;2.33;;
6537;SDS011;3302;52.508;13.454;2023-02-28T11:16:12;3.50;;;2.20;;
6537;SDS011;3302;52.508;13.454;2023-02-28T11:18:49;4.20;;;2.60;;
6537;SDS011;3302;52.508;13.454;2023-02-28T11:21:30;3.50;;;2.07;;
6537;SDS011;3302;52.508;13.454;2023-02-28T11:24:12;5.70;;;2.40;;
6537;SDS011;3302;52.508;13.454;2023-02-28T11:26:52;4.27;;;2.37;;
6537;SDS011;3302;52.508;13.454;2023-02-28T11:29:20;7.00;;;2.40;;
6537;SDS011;3302;52.508;13.454;2023-02-28T11:34:35;3.03;;;2.20;;
6537;SDS011;3302;52.508;13.454;2023-02-28T11:37:03;4.27;;;2.40;;
6537;SDS011;3302;52.508;13.454;2023-02-28T11:39:32;4.40;;;2.47;;
6537;SDS011;3302;52.508;13.454;2023-02-28T11:53:22;4.40;;;2.80;;
6537;SDS011;3302;52.508;13.454;2023-02-28T12:15:45;5.77;;;2.87;;
6537;SDS011;3302;52.508;13.454;2023-02-28T12:18:47;4.90;;;2.73;;
6537;SDS011;3302;52.508;13.454;2023-02-28T12:21:36;4.37;;;2.57;;
6537;SDS011;3302;52.508;13.454;2023-02-28T12:26:52;4.33;;;2.00;;
6537;SDS011;3302;52.508;13.454;2023-02-28T12:29:27;3.70;;;2.33;;
6537;SDS011;3302;52.508;13.454;2023-02-28T12:32:14;5.17;;;2.23;;
6537;SDS011;3302;52.508;13.454;2023-02-28T12:37:43;4.70;;;2.70;;
6537;SDS011;3302;52.508;13.454;2023-02-28T12:40:18;7.17;;;3.20;;
6537;SDS011;3302;52.508;13.454;2023-02-28T12:42:47;5.13;;;2.43;;
6537;SDS011;3302;52.508;13.454;2023-02-28T12:45:20;3.27;;;2.30;;
6537;SDS011;3302;52.508;13.454;2023-02-28T12:48:01;3.90;;;2.27;;
6537;SDS011;3302;52.508;13.454;2023-02-28T12:50:31;3.50;;;2.00;;
6537;SDS011;3302;52.508;13.454;2023-02-28T12:59:10;3.97;;;2.30;;
6537;SDS011;3302;52.508;13.454;2023-02-28T13:04:45;3.70;;;2.20;;
6537;SDS011;3302;52.508;13.454;2023-02-28T13:10:37;3.23;;;2.07;;
6537;SDS011;3302;52.508;13.454;2023-02-28T13:13:20;4.97;;;2.80;;
6537;SDS011;3302;52.508;13.454;2023-02-28T13:15:59;4.23;;;2.10;;
6537;SDS011;3302;52.508;13.454;2023-02-28T13:18:39;3.07;;;2.17;;
6537;SDS011;3302;52.508;13.454;2023-02-28T13:21:09;4.00;;;2.43;;
6537;SDS011;3302;52.508;13.454;2023-02-28T13:26:21;4.23;;;2.30;;
6537;SDS011;3302;52.508;13.454;2023-02-28T13:29:00;4.57;;;2.40;;
6537;SDS011;3302;52.508;13.454;2023-02-28T13:34:33;4.00;;;2.30;;
6537;SDS011;3302;52.508;13.454;2023-02-28T13:48:14;5.30;;;3.23;;
6537;SDS011;3302;52.508;13.454;2023-02-28T13:50:36;5.57;;;2.63;;
6537;SDS011;3302;52.508;13.454;2023-02-28T14:01:39;3.17;;;2.10;;
6537;SDS011;3302;52.508;13.454;2023-02-28T14:04:29;4.17;;;2.27;;
6537;SDS011;3302;52.508;13.454;2023-02-28T14:07:00;3.20;;;2.17;;
6537;SDS011;3302;52.508;13.454;2023-02-28T14:09:32;2.97;;;2.20;;
6537;SDS011;3302;52.508;13.454;2023-02-28T14:15:04;3.77;;;2.30;;
6537;SDS011;3302;52.508;13.454;2023-02-28T14:17:51;3.33;;;2.50;;
6537;SDS011;3302;52.508;13.454;2023-02-28T14:20:19;3.73;;;2.47;;
6537;SDS011;3302;52.508;13.454;2023-02-28T14:31:24;3.70;;;2.37;;
6537;SDS011;3302;52.508;13.454;2023-02-28T14:37:08;3.77;;;2.50;;
6537;SDS011;3302;52.508;13.454;2023-02-28T14:39:41;3.70;;;2.37;;
6537;SDS011;3302;52.508;13.454;2023-02-28T14:42:31;4.23;;;2.50;;
6537;SDS011;3302;52.508;13.454;2023-02-28T14:45:03;4.50;;;2.60;;
6537;SDS011;3302;52.508;13.454;2023-02-28T14:47:33;3.93;;;2.60;;
6537;SDS011;3302;52.508;13.454;2023-02-28T14:50:00;5.63;;;3.30;;
6537;SDS011;3302;52.508;13.454;2023-02-28T14:52:30;4.87;;;3.00;;
6537;SDS011;3302;52.508;13.454;2023-02-28T14:55:10;4.07;;;2.73;;
6537;SDS011;3302;52.508;13.454;2023-02-28T14:57:41;3.93;;;2.63;;
6537;SDS011;3302;52.508;13.454;2023-02-28T15:00:24;3.20;;;2.53;;
6537;SDS011;3302;52.508;13.454;2023-02-28T15:02:55;6.13;;;3.13;;
6537;SDS011;3302;52.508;13.454;2023-02-28T15:10:40;6.23;;;3.17;;
6537;SDS011;3302;52.508;13.454;2023-02-28T15:13:13;4.07;;;3.00;;
6537;SDS011;3302;52.508;13.454;2023-02-28T15:18:29;5.27;;;3.40;;
6537;SDS011;3302;52.508;13.454;2023-02-28T15:21:15;5.37;;;3.37;;
6537;SDS011;3302;52.508;13.454;2023-02-28T15:24:16;3.60;;;2.80;;
6537;SDS011;3302;52.508;13.454;2023-02-28T15:26:58;3.87;;;2.60;;
6537;SDS011;3302;52.508;13.454;2023-02-28T15:29:26;3.70;;;2.63;;
6537;SDS011;3302;52.508;13.454;2023-02-28T15:34:21;4.00;;;2.80;;
6537;SDS011;3302;52.508;13.454;2023-02-28T15:36:54;6.50;;;3.17;;
6537;SDS011;3302;52.508;13.454;2023-02-28T15:39:24;5.10;;;2.90;;
6537;SDS011;3302;52.508;13.454;2023-02-28T15:42:10;3.40;;;2.53;;
6537;SDS011;3302;52.508;13.454;2023-02-28T15:44:46;4.70;;;3.30;;
6537;SDS011;3302;52.508;13.454;2023-02-28T15:47:19;3.87;;;3.07;;
6537;SDS011;3302;52.508;13.454;2023-02-28T15:49:51;5.07;;;2.80;;
6537;SDS011;3302;52.508;13.454;2023-02-28T15:52:20;5.73;;;3.60;;
6537;SDS011;3302;52.508;13.454;2023-02-28T15:54:49;4.10;;;2.80;;
6537;SDS011;3302;52.508;13.454;2023-02-28T15:57:17;5.47;;;3.30;;
6537;SDS011;3302;52.508;13.454;2023-02-28T15:59:52;4.10;;;2.73;;
6537;SDS011;3302;52.508;13.454;2023-02-28T16:02:22;4.50;;;3.03;;
6537;SDS011;3302;52.508;13.454;2023-02-28T16:07:33;3.70;;;2.67;;
6537;SDS011;3302;52.508;13.454;2023-02-28T16:10:00;4.40;;;2.60;;
6537;SDS011;3302;52.508;13.454;2023-02-28T16:12:31;5.57;;;3.10;;
6537;SDS011;3302;52.508;13.454;2023-02-28T16:15:03;4.93;;;2.83;;
6537;SDS011;3302;52.508;13.454;2023-02-28T16:17:34;3.80;;;2.60;;
6537;SDS011;3302;52.508;13.454;2023-02-28T16:20:05;4.57;;;3.00;;
6537;SDS011;3302;52.508;13.454;2023-02-28T16:22:57;4.27;;;2.67;;
6537;SDS011;3302;52.508;13.454;2023-02-28T16:25:40;6.20;;;3.10;;
6537;SDS011;3302;52.508;13.454;2023-02-28T16:28:30;4.07;;;2.83;;
6537;SDS011;3302;52.508;13.454;2023-02-28T16:30:57;5.07;;;3.00;;
6537;SDS011;3302;52.508;13.454;2023-02-28T16:33:28;9.73;;;3.53;;
6537;SDS011;3302;52.508;13.454;2023-02-28T16:35:54;4.50;;;2.97;;
6537;SDS011;3302;52.508;13.454;2023-02-28T16:38:20;3.83;;;2.33;;
6537;SDS011;3302;52.508;13.454;2023-02-28T16:40:46;4.50;;;2.90;;
6537;SDS011;3302;52.508;13.454;2023-02-28T16:43:16;6.17;;;3.37;;
6537;SDS011;3302;52.508;13.454;2023-02-28T16:45:46;5.07;;;2.87;;
6537;SDS011;3302;52.508;13.454;2023-02-28T16:48:13;6.93;;;3.00;;
6537;SDS011;3302;52.508;13.454;2023-02-28T16:50:40;4.90;;;3.00;;
6537;SDS011;3302;52.508;13.454;2023-02-28T16:53:07;4.57;;;2.83;;
6537;SDS011;3302;52.508;13.454;2023-02-28T16:55:33;5.03;;;3.53;;
6537;SDS011;3302;52.508;13.454;2023-02-28T16:58:00;5.80;;;3.43;;
6537;SDS011;3302;52.508;13.454;2023-02-28T17:00:28;6.43;;;3.97;;
6537;SDS011;3302;52.508;13.454;2023-02-28T17:02:56;8.97;;;4.23;;
6537;SDS011;3302;52.508;13.454;2023-02-28T17:05:22;6.20;;;3.90;;
6537;SDS011;3302;52.508;13.454;2023-02-28T17:07:49;5.97;;;4.10;;
6537;SDS011;3302;52.508;13.454;2023-02-28T17:10:16;10.37;;;5.50;;
6537;SDS011;3302;52.508;13.454;2023-02-28T17:12:44;7.27;;;4.27;;
6537;SDS011;3302;52.508;13.454;2023-02-28T17:15:10;10.07;;;4.60;;
6537;SDS011;3302;52.508;13.454;2023-02-28T17:17:37;6.30;;;4.00;;
6537;SDS011;3302;52.508;13.454;2023-02-28T17:20:03;8.43;;;4.40;;
6537;SDS011;3302;52.508;13.454;2023-02-28T17:22:31;5.93;;;4.00;;
6537;SDS011;3302;52.508;13.454;2023-02-28T17:24:57;7.33;;;4.00;;
6537;SDS011;3302;52.508;13.454;2023-02-28T17:27:24;12.50;;;5.93;;
6537;SDS011;3302;52.508;13.454;2023-02-28T17:29:50;21.43;;;9.80;;
6537;SDS011;3302;52.508;13.454;2023-02-28T17:32:16;21.37;;;9.43;;
6537;SDS011;3302;52.508;13.454;2023-02-28T17:34:43;18.53;;;8.57;;
6537;SDS011;3302;52.508;13.454;2023-02-28T17:37:09;13.30;;;6.47;;
6537;SDS011;3302;52.508;13.454;2023-02-28T17:39:35;12.13;;;6.67;;
6537;SDS011;3302;52.508;13.454;2023-02-28T17:42:01;10.73;;;5.57;;
6537;SDS011;3302;52.508;13.454;2023-02-28T17:44:27;22.47;;;10.80;;
6537;SDS011;3302;52.508;13.454;2023-02-28T17:46:53;13.57;;;7.57;;
6537;SDS011;3302;52.508;13.454;2023-02-28T17:49:20;7.30;;;4.53;;
6537;SDS011;3302;52.508;13.454;2023-02-28T17:51:46;7.50;;;5.03;;
6537;SDS011;3302;52.508;13.454;2023-02-28T17:54:13;8.77;;;4.70;;
6537;SDS011;3302;52.508;13.454;2023-02-28T17:56:39;7.00;;;4.67;;
6537;SDS011;3302;52.508;13.454;2023-02-28T17:59:05;8.97;;;5.40;;